createdAt,value
2019-04-04T00:00:47.101Z,14.90
2019-04-04T00:05:49.369Z,16.07
2019-04-04T00:10:51.256Z,14.37
2019-04-04T00:15:52.740Z,16.10
2019-04-04T00:20:54.278Z,15.50
2019-04-04T00:25:55.891Z,15.33
2019-04-04T00:30:57.632Z,14.73
2019-04-04T00:36:00.715Z,15.53
2019-04-04T00:41:02.868Z,15.70
2019-04-04T00:46:04.317Z,15.60
2019-04-04T00:51:07.872Z,15.43
2019-04-04T00:56:09.623Z,16.13
2019-04-04T01:01:11.183Z,16.20
2019-04-04T01:06:12.813Z,15.47
2019-04-04T01:11:14.263Z,16.90
2019-04-04T01:16:15.749Z,16.10
2019-04-04T01:21:17.216Z,15.80
2019-04-04T01:26:18.762Z,16.50
2019-04-04T01:31:20.214Z,16.87
2019-04-04T01:36:23.158Z,16.17
2019-04-04T01:41:25.344Z,17.87
2019-04-04T01:46:27.378Z,16.43
2019-04-04T01:51:29.251Z,17.23
2019-04-04T01:56:31.125Z,16.30
2019-04-04T02:01:32.587Z,16.10
2019-04-04T02:06:34.467Z,15.93
2019-04-04T02:11:37.603Z,17.70
2019-04-04T02:16:39.806Z,16.13
2019-04-04T02:21:41.379Z,17.30
2019-04-04T02:26:42.916Z,15.93
2019-04-04T02:31:52.969Z,16.30
2019-04-04T02:36:52.665Z,16.37
2019-04-04T02:41:54.117Z,16.87
2019-04-04T02:46:55.565Z,16.43
2019-04-04T02:51:57.557Z,16.23
2019-04-04T02:56:59.157Z,15.63
2019-04-04T03:02:04.811Z,16.40
2019-04-04T03:07:04.273Z,16.10
2019-04-04T03:12:06.127Z,16.67
2019-04-04T03:17:07.597Z,16.13
2019-04-04T03:22:09.084Z,16.60
2019-04-04T03:27:10.840Z,17.57
2019-04-04T03:32:14.624Z,15.47
2019-04-04T03:37:15.976Z,17.47
2019-04-04T03:42:17.500Z,16.67
2019-04-04T03:47:18.975Z,16.13
2019-04-04T03:52:20.467Z,16.23
2019-04-04T03:57:22.001Z,15.63
2019-04-04T04:02:24.392Z,16.60
2019-04-04T04:07:25.940Z,16.43
2019-04-04T04:12:27.392Z,17.63
2019-04-04T04:17:28.904Z,16.27
2019-04-04T04:22:30.379Z,16.27
2019-04-04T04:27:31.885Z,15.83
2019-04-04T04:32:37.080Z,17.07
2019-04-04T04:37:36.829Z,16.80
2019-04-04T04:42:38.284Z,16.87
2019-04-04T04:47:39.841Z,16.17
2019-04-04T04:52:41.802Z,17.20
2019-04-04T04:57:43.404Z,17.60
2019-04-04T05:02:45.143Z,17.13
2019-04-04T05:07:46.626Z,17.50
2019-04-04T05:12:48.493Z,17.50
2019-04-04T05:17:49.996Z,18.17
2019-04-04T05:22:51.470Z,16.83
2019-04-04T05:27:53.193Z,17.63
2019-04-04T05:32:56.525Z,16.83
2019-04-04T05:37:58.103Z,17.63
2019-04-04T05:42:59.581Z,17.23
2019-04-04T05:48:01.049Z,17.13
2019-04-04T05:53:04.332Z,17.20
2019-04-04T05:58:06.289Z,16.87
2019-04-04T06:03:07.757Z,17.00
2019-04-04T06:08:09.211Z,17.10
2019-04-04T06:13:10.777Z,16.23
2019-04-04T06:18:12.236Z,16.60
2019-04-04T06:23:14.106Z,17.20
2019-04-04T06:28:15.578Z,16.90
2019-04-04T06:33:17.371Z,17.03
2019-04-04T06:38:18.877Z,16.33
2019-04-04T06:43:20.715Z,16.37
2019-04-04T06:48:22.195Z,16.70
2019-04-04T06:53:23.739Z,15.20
2019-04-04T06:58:25.360Z,15.87
2019-04-04T07:03:28.043Z,16.07
2019-04-04T07:08:29.795Z,15.73
2019-04-04T07:13:41.741Z,15.67
2019-04-04T07:18:34.818Z,15.83
2019-04-04T07:23:36.373Z,14.20
2019-04-04T07:28:37.866Z,14.97
2019-04-04T07:33:42.658Z,14.63
2019-04-04T07:38:42.686Z,14.63
2019-04-04T07:43:44.152Z,13.60
2019-04-04T07:48:45.675Z,13.50
2019-04-04T07:53:47.438Z,14.37
2019-04-04T07:58:49.268Z,13.70
2019-04-04T08:03:50.750Z,13.20
2019-04-04T08:08:52.504Z,12.60
2019-04-04T08:13:54.275Z,12.40
2019-04-04T08:18:55.750Z,12.73
2019-04-04T08:23:57.146Z,12.03
2019-04-04T08:28:58.934Z,11.03
2019-04-04T08:34:00.775Z,11.50
2019-04-04T08:39:06.656Z,12.27
2019-04-04T08:44:08.120Z,11.97
2019-04-04T08:49:09.579Z,10.73
2019-04-04T08:54:11.056Z,10.97
2019-04-04T08:59:12.912Z,11.20
2019-04-04T09:04:14.378Z,11.13
2019-04-04T09:09:16.256Z,12.17
2019-04-04T09:14:18.068Z,11.40
2019-04-04T09:19:19.904Z,11.27
2019-04-04T09:24:21.391Z,11.77
2019-04-04T09:29:22.850Z,11.60
2019-04-04T09:34:24.723Z,11.07
2019-04-04T09:39:26.238Z,11.37
2019-04-04T09:44:27.796Z,11.70
2019-04-04T09:49:29.255Z,12.77
2019-04-04T09:54:31.113Z,11.30
2019-04-04T09:59:32.693Z,11.67
2019-04-04T10:04:34.550Z,11.97
2019-04-04T10:09:36.422Z,10.63
2019-04-04T10:14:38.202Z,11.20
2019-04-04T10:19:39.958Z,11.07
2019-04-04T10:24:41.700Z,10.83
2019-04-04T10:29:43.517Z,10.60
2019-04-04T10:34:44.995Z,10.37
2019-04-04T10:39:46.887Z,9.67
2019-04-04T10:44:48.418Z,10.53
2019-04-04T10:49:49.931Z,9.17
2019-04-04T10:54:51.773Z,9.67
2019-04-04T10:59:54.695Z,9.20
2019-04-04T11:04:56.502Z,8.63
2019-04-04T11:09:58.422Z,8.77
2019-04-04T11:14:59.883Z,9.23
2019-04-04T11:20:01.983Z,10.27
2019-04-04T11:25:04.639Z,9.13
2019-04-04T11:30:08.078Z,8.93
2019-04-04T11:35:09.755Z,9.60
2019-04-04T11:40:11.715Z,9.17
2019-04-04T11:45:13.741Z,8.47
2019-04-04T11:50:15.786Z,8.50
2019-04-04T11:55:17.763Z,8.00
2019-04-04T12:00:21.316Z,7.73
2019-04-04T12:05:22.814Z,7.23
2019-04-04T12:10:24.740Z,7.40
2019-04-04T12:15:26.226Z,7.97
2019-04-04T12:20:27.701Z,7.37
2019-04-04T12:25:29.187Z,7.80
2019-04-04T12:30:31.003Z,7.37
2019-04-04T12:35:32.477Z,7.80
2019-04-04T12:40:33.934Z,7.90
2019-04-04T12:45:35.507Z,8.40
2019-04-04T12:50:36.966Z,8.40
2019-04-04T12:55:38.431Z,7.90
2019-04-04T13:00:40.306Z,7.90
2019-04-04T13:05:42.197Z,8.00
2019-04-04T13:10:43.662Z,8.40
2019-04-04T13:15:45.130Z,7.40
2019-04-04T13:20:46.591Z,8.13
2019-04-04T13:25:48.358Z,7.27
2019-04-04T13:30:50.172Z,6.43
2019-04-04T13:35:52.004Z,6.67
2019-04-04T13:40:53.889Z,6.67
2019-04-04T13:45:55.567Z,7.27
2019-04-04T13:50:57.046Z,6.07
2019-04-04T13:55:59.284Z,6.43
2019-04-04T14:01:00.897Z,6.07
2019-04-04T14:06:02.375Z,5.60
2019-04-04T14:11:04.253Z,6.30
2019-04-04T14:16:05.810Z,6.40
2019-04-04T14:21:07.277Z,5.43
2019-04-04T14:26:08.855Z,5.77
2019-04-04T14:31:10.360Z,6.30
2019-04-04T14:36:11.876Z,6.20
2019-04-04T14:41:13.756Z,5.87
2019-04-04T14:46:15.251Z,5.67
2019-04-04T14:51:16.802Z,5.77
2019-04-04T14:56:18.568Z,5.80
2019-04-04T15:01:20.107Z,5.53
2019-04-04T15:06:21.673Z,5.90
2019-04-04T15:11:24.565Z,5.20
2019-04-04T15:16:26.759Z,5.60
2019-04-04T15:21:28.739Z,5.67
2019-04-04T15:26:30.310Z,5.40
2019-04-04T15:31:32.334Z,4.97
2019-04-04T15:36:34.168Z,5.33
2019-04-04T15:41:37.540Z,5.70
2019-04-04T15:46:39.258Z,5.03
2019-04-04T15:51:40.732Z,5.10
2019-04-04T15:56:42.588Z,5.37
2019-04-04T16:01:44.468Z,4.80
2019-04-04T16:06:46.344Z,5.67
2019-04-04T16:11:49.863Z,5.50
2019-04-04T16:16:51.633Z,5.07
2019-04-04T16:21:53.507Z,5.10
2019-04-04T16:26:54.977Z,5.10
2019-04-04T16:31:56.456Z,5.40
2019-04-04T16:36:58.425Z,5.53
2019-04-04T16:42:02.416Z,5.60
2019-04-04T16:47:03.586Z,5.90
2019-04-04T16:52:07.235Z,7.70
2019-04-04T16:57:08.540Z,5.57
2019-04-04T17:02:10.460Z,6.33
2019-04-04T17:07:11.929Z,6.13
2019-04-04T17:12:15.140Z,6.10
2019-04-04T17:17:17.057Z,6.80
2019-04-04T17:22:18.836Z,7.10
2019-04-04T17:27:20.371Z,6.77
2019-04-04T17:32:21.846Z,6.23
2019-04-04T17:37:23.938Z,6.67
2019-04-04T17:42:30.202Z,6.40
2019-04-04T17:47:29.497Z,6.47
2019-04-04T17:52:31.198Z,6.47
2019-04-04T17:57:32.780Z,6.63
2019-04-04T18:02:34.319Z,6.07
2019-04-04T18:07:36.302Z,6.43
2019-04-04T18:12:40.568Z,7.00
2019-04-04T18:17:41.463Z,7.23
2019-04-04T18:22:43.071Z,7.30
2019-04-04T18:27:44.577Z,7.37
2019-04-04T18:32:46.072Z,7.13
2019-04-04T18:37:48.242Z,7.17
2019-04-04T18:42:53.437Z,7.43
2019-04-04T18:47:53.358Z,7.00
2019-04-04T18:52:54.836Z,7.10
2019-04-04T18:57:56.689Z,7.07
2019-04-04T19:02:58.302Z,7.77
2019-04-04T19:07:59.870Z,6.77
2019-04-04T19:13:05.741Z,7.17
2019-04-04T19:18:07.377Z,7.70
2019-04-04T19:23:09.252Z,7.47
2019-04-04T19:28:11.069Z,7.57
2019-04-04T19:33:12.623Z,8.07
2019-04-04T19:38:14.215Z,8.63
2019-04-04T19:43:18.147Z,8.40
2019-04-04T19:48:19.239Z,8.23
2019-04-04T19:53:20.731Z,8.20
2019-04-04T19:58:22.465Z,8.17
2019-04-04T20:03:23.987Z,8.77
2019-04-04T20:08:25.942Z,8.67
2019-04-04T20:13:31.284Z,8.60
2019-04-04T20:18:31.223Z,8.83
2019-04-04T20:23:33.806Z,8.87
2019-04-04T20:28:35.332Z,8.60
2019-04-04T20:33:36.803Z,8.83
2019-04-04T20:38:38.439Z,9.30
2019-04-04T20:43:43.447Z,8.77
2019-04-04T20:48:43.430Z,8.77
2019-04-04T20:53:44.905Z,9.60
2019-04-04T20:58:46.430Z,8.70
2019-04-04T21:03:47.890Z,9.60
2019-04-04T21:08:49.343Z,9.70
2019-04-04T21:13:56.476Z,9.37
2019-04-04T21:18:54.237Z,9.90
2019-04-04T21:23:55.744Z,9.20
2019-04-04T21:28:57.217Z,9.87
2019-04-04T21:33:58.915Z,9.37
2019-04-04T21:39:00.457Z,9.33
2019-04-04T21:44:08.701Z,10.13
2019-04-04T21:49:05.788Z,10.43
2019-04-04T21:54:07.399Z,10.17
2019-04-04T21:59:09.015Z,10.00
2019-04-04T22:04:10.817Z,10.73
2019-04-04T22:09:16.942Z,10.43
2019-04-04T22:14:21.865Z,9.87
2019-04-04T22:19:22.278Z,10.87
2019-04-04T22:24:23.749Z,10.60
2019-04-04T22:29:25.535Z,10.53
2019-04-04T22:34:27.395Z,11.30
2019-04-04T22:39:28.876Z,10.93
2019-04-04T22:44:34.993Z,10.83
2019-04-04T22:49:33.885Z,11.67
2019-04-04T22:54:35.591Z,11.07
2019-04-04T22:59:37.174Z,10.97
2019-04-04T23:04:38.968Z,10.67
2019-04-04T23:09:40.840Z,11.43
2019-04-04T23:14:48.405Z,11.77
2019-04-04T23:19:46.639Z,11.50
2019-04-04T23:24:48.102Z,11.97
2019-04-04T23:29:50.037Z,12.00
2019-04-04T23:34:51.542Z,12.13
2019-04-04T23:39:53.022Z,11.37
2019-04-04T23:45:00.722Z,12.93
2019-04-04T23:49:58.475Z,12.50
2019-04-04T23:54:59.995Z,12.50
